Dade — WDF6950 — position and weather

sailwx.info

Track history (hours):
 
Tides and Currents Weather Stations Pressure Air Temp Water Temp Dewpoint Dewpoint Depression Visibility Wind Speed Wind Dir Waves Ship Positions

Dade

Owner: Kirby Inland Marine LP, Houston, TX. More information available from US FCC via Universal Licensing System and Coast Guard Vessel Documentation Center.

Last reported at 2018-Apr-20 05:00 UTC. Time now 2018-Apr-20 05:10 UTC.
Position N 25°46' W 080°10'.

Length 93 m; draft 3.7 m.

Type: Tug. MMSI: 367479540.

Date/timePositionNaut miles runAvg speedWind from/ knotsBaromVisibWave heightAir tempDewpointWater temp
2018-Apr-20 05:00N 25°46' W 080°10'0 0.0
2018-Apr-20 04:30N 25°46' W 080°10'0 0.0
2018-Apr-20 04:00N 25°46' W 080°10'0 0.0
2018-Apr-20 03:30N 25°46' W 080°10'0 0.0
2018-Apr-20 03:00N 25°46' W 080°10'0 0.0
2018-Apr-20 02:30N 25°46' W 080°10'0 0.0
2018-Apr-20 02:00N 25°46' W 080°10'0 0.0
2018-Apr-20 01:31N 25°46' W 080°10'0 0.6
2018-Apr-20 01:00N 25°47' W 080°10'2 3.2
2018-Apr-20 00:30N 25°46' W 080°08'0 0.0
2018-Apr-20 00:01N 25°46' W 080°08'0 0.0
2018-Apr-19 23:31N 25°46' W 080°08'0 0.0
2018-Apr-19 23:01N 25°46' W 080°08'0 0.0
2018-Apr-19 22:30N 25°46' W 080°08'0 0.0
2018-Apr-19 22:01N 25°46' W 080°08'0 0.0
2018-Apr-19 21:31N 25°46' W 080°08'0 0.0
2018-Apr-19 21:00N 25°46' W 080°08'0 0.0
2018-Apr-19 20:30N 25°46' W 080°08'0 0.0
2018-Apr-19 20:00N 25°46' W 080°08'0 0.0
2018-Apr-19 19:30N 25°46' W 080°08'0 0.0
2018-Apr-19 19:00N 25°46' W 080°08'0 0.0
2018-Apr-19 18:31N 25°46' W 080°08'0 0.0
2018-Apr-19 18:00N 25°46' W 080°08'2 3.2
2018-Apr-19 17:31N 25°47' W 080°10'0 1.0
2018-Apr-19 17:00N 25°46' W 080°10'0 0.0
2018-Apr-19 16:30N 25°46' W 080°10'0 0.0
2018-Apr-19 16:00N 25°46' W 080°10'0 0.0
2018-Apr-19 15:31N 25°46' W 080°10'0 0.0
2018-Apr-19 15:00N 25°46' W 080°10'0 0.0
2018-Apr-19 14:31N 25°46' W 080°10'0 0.0
2018-Apr-19 14:00N 25°46' W 080°10'0 0.0
2018-Apr-19 13:31N 25°46' W 080°10'0 0.0
2018-Apr-19 13:01N 25°46' W 080°10'0 0.0
2018-Apr-19 12:29N 25°46' W 080°10'0 0.0
2018-Apr-19 12:00N 25°46' W 080°10'0 0.0
2018-Apr-19 11:30N 25°46' W 080°10'0 0.0
2018-Apr-19 11:00N 25°46' W 080°10'0 0.0
2018-Apr-19 10:30N 25°46' W 080°10'0 0.0
2018-Apr-19 09:59N 25°46' W 080°10'0 0.0
2018-Apr-19 09:30N 25°46' W 080°10'0 0.0
2018-Apr-19 09:00N 25°46' W 080°10'0 0.0
2018-Apr-19 08:31N 25°46' W 080°10'0 0.0
2018-Apr-19 07:59N 25°46' W 080°10'0 0.0
2018-Apr-19 07:30N 25°46' W 080°10'0 0.0
2018-Apr-19 07:01N 25°46' W 080°10'1 1.3
2018-Apr-19 06:31N 25°46' W 080°09'3 5.5
2018-Apr-19 06:01N 25°46' W 080°06'2 3.1
2018-Apr-19 05:30N 25°47' W 080°05'3 5.6
2018-Apr-19 05:00N 25°49' W 080°02'2 4.6
2018-Apr-19 04:31N 25°51' W 080°02'2 4.2
2018-Apr-19 04:01N 25°53' W 080°02'2 4.1
2018-Apr-19 03:31N 25°55' W 080°02'2 4.0
2018-Apr-19 03:00N 25°57' W 080°02'2 4.0
2018-Apr-19 02:29N 25°59' W 080°02'2 4.0
2018-Apr-19 02:00N 26°01' W 080°02'2 4.3
2018-Apr-19 01:30N 26°03' W 080°03'3 6.0
2018-Apr-19 01:00N 26°05' W 080°05'2 3.8
2018-Apr-19 00:30N 26°06' W 080°07'0 0.3
2018-Apr-19 00:00N 26°06' W 080°07'0 0.0
2018-Apr-18 23:30N 26°06' W 080°07'0 0.0
2018-Apr-18 23:00N 26°06' W 080°07'0 0.0
2018-Apr-18 22:30N 26°06' W 080°07'0 0.0
2018-Apr-18 22:00N 26°06' W 080°07'0 0.0
2018-Apr-18 21:30N 26°06' W 080°07'0 0.0
2018-Apr-18 21:00N 26°06' W 080°07'0 0.0
2018-Apr-18 20:30N 26°06' W 080°07'0 0.0
2018-Apr-18 20:00N 26°06' W 080°07'0 0.0
2018-Apr-18 19:30N 26°06' W 080°07'0 0.0
2018-Apr-18 19:00N 26°06' W 080°07'1 1.7
2018-Apr-18 18:30N 26°06' W 080°06'2 4.5
2018-Apr-18 18:00N 26°04' W 080°04'5 9.9
2018-Apr-18 17:30N 25°60' W 080°02'612.9
2018-Apr-18 17:00N 25°53' W 080°02'612.3
2018-Apr-18 16:30N 25°48' W 080°04'4 7.2
2018-Apr-18 16:00N 25°45' W 080°07'3 5.2
2018-Apr-18 15:30N 25°46' W 080°10'0 0.3
2018-Apr-18 14:59N 25°46' W 080°10'1 1.2
2018-Apr-18 14:30N 25°46' W 080°11'0 0.0
2018-Apr-18 14:00N 25°46' W 080°11'0 0.0
2018-Apr-18 13:24N 25°46' W 080°11'0 0.0
2018-Apr-18 13:00N 25°46' W 080°11'0 0.0
2018-Apr-18 12:30N 25°46' W 080°11'0 0.0
2018-Apr-18 12:00N 25°46' W 080°11'0 0.0
2018-Apr-18 11:30N 25°46' W 080°11'0 0.0
2018-Apr-18 11:00N 25°46' W 080°11'0 0.0
2018-Apr-18 10:30N 25°46' W 080°11'0 0.0
2018-Apr-18 10:00N 25°46' W 080°11'0 0.0
2018-Apr-18 09:30N 25°46' W 080°11'0 0.0
2018-Apr-18 09:00N 25°46' W 080°11'0 0.0
2018-Apr-18 08:30N 25°46' W 080°11'0 0.0
2018-Apr-18 08:00N 25°46' W 080°11'0 0.0
2018-Apr-18 07:30N 25°46' W 080°11'0 0.0
2018-Apr-18 07:00N 25°46' W 080°11'0 0.0
2018-Apr-18 06:30N 25°46' W 080°11'0 0.0
2018-Apr-18 06:00N 25°46' W 080°11'0 0.0
2018-Apr-18 05:30N 25°46' W 080°11'0 0.0
2018-Apr-18 05:00N 25°46' W 080°11'0 0.0
2018-Apr-18 04:30N 25°46' W 080°11'0 0.0
2018-Apr-18 04:00N 25°46' W 080°11'0 0.0
2018-Apr-18 03:30N 25°46' W 080°11'0 0.0
2018-Apr-18 03:00N 25°46' W 080°11'0 0.0
2018-Apr-18 02:30N 25°46' W 080°11'0 0.0
2018-Apr-18 02:00N 25°46' W 080°11'0 0.0
2018-Apr-18 01:30N 25°46' W 080°11'0 0.0
2018-Apr-18 01:00N 25°46' W 080°11'0 0.0
2018-Apr-18 00:30N 25°46' W 080°11'0 0.0
2018-Apr-18 00:00N 25°46' W 080°11'0 0.0
2018-Apr-17 23:30N 25°46' W 080°11'0 0.0
2018-Apr-17 23:00N 25°46' W 080°11'0 0.0
2018-Apr-17 22:30N 25°46' W 080°11'0 0.0
2018-Apr-17 22:00N 25°46' W 080°11'0 0.0
2018-Apr-17 21:30N 25°46' W 080°11'0 0.0
2018-Apr-17 21:00N 25°46' W 080°11'0 0.0
2018-Apr-17 20:30N 25°46' W 080°11'0 0.0
2018-Apr-17 20:00N 25°46' W 080°11'1 1.2
2018-Apr-17 19:30N 25°46' W 080°10'0 0.2
2018-Apr-17 19:00N 25°46' W 080°10'1 2.3
2018-Apr-17 18:30N 25°46' W 080°09'0 0.0
2018-Apr-17 18:00N 25°46' W 080°09'0 0.0
2018-Apr-17 17:30N 25°46' W 080°09'1 2.4
2018-Apr-17 17:01N 25°46' W 080°10'1 2.1
2018-Apr-17 16:30N 25°47' W 080°11'0 0.0
2018-Apr-17 16:00N 25°47' W 080°11'0 0.0
2018-Apr-17 15:30N 25°47' W 080°11'0 0.0
2018-Apr-17 15:00N 25°47' W 080°11'0 0.0
2018-Apr-17 14:30N 25°47' W 080°11'0 0.0
2018-Apr-17 14:00N 25°47' W 080°11'0 0.0
2018-Apr-17 13:30N 25°47' W 080°11'0 0.0
2018-Apr-17 13:00N 25°47' W 080°11'0 0.0
2018-Apr-17 12:30N 25°47' W 080°11'0 0.0
2018-Apr-17 12:00N 25°47' W 080°11'0 0.0
2018-Apr-17 11:30N 25°47' W 080°11'0 0.0
2018-Apr-17 11:00N 25°47' W 080°11'0 0.0
2018-Apr-17 10:30N 25°47' W 080°11'0 0.0
2018-Apr-17 10:00N 25°47' W 080°11'0 0.0
2018-Apr-17 09:30N 25°47' W 080°11'0 0.0
2018-Apr-17 09:00N 25°47' W 080°11'0 0.0
2018-Apr-17 08:30N 25°47' W 080°11'0 0.0
2018-Apr-17 08:00N 25°47' W 080°11'0 0.0
2018-Apr-17 07:30N 25°47' W 080°11'0 0.0
2018-Apr-17 07:00N 25°47' W 080°11'0 0.0
2018-Apr-17 06:30N 25°47' W 080°11'0 0.0
2018-Apr-17 06:00N 25°47' W 080°11'0 0.0
2018-Apr-17 05:30N 25°47' W 080°11'0 0.0
2018-Apr-17 05:00N 25°47' W 080°11'0 0.0
2018-Apr-17 04:30N 25°47' W 080°11'0 0.0
2018-Apr-17 04:00N 25°47' W 080°11'0 0.0
2018-Apr-17 03:30N 25°47' W 080°11'0 0.0
2018-Apr-17 03:00N 25°47' W 080°11'0 0.0
2018-Apr-17 02:30N 25°47' W 080°11'0 0.0
2018-Apr-17 02:00N 25°47' W 080°11'0 0.0
2018-Apr-17 01:30N 25°47' W 080°11'0 0.0
2018-Apr-17 01:00N 25°47' W 080°11'0 0.0
2018-Apr-17 00:30N 25°47' W 080°11'0 0.0
2018-Apr-17 00:00N 25°47' W 080°11'0 0.0
2018-Apr-16 23:30N 25°47' W 080°11'0 0.0
2018-Apr-16 23:00N 25°47' W 080°11'0 0.0
2018-Apr-16 22:30N 25°47' W 080°11'0 0.0
2018-Apr-16 22:00N 25°47' W 080°11'0 0.0
2018-Apr-16 21:30N 25°47' W 080°11'0 0.0
2018-Apr-16 21:00N 25°47' W 080°11'0 0.0
2018-Apr-16 20:30N 25°47' W 080°11'0 0.0
2018-Apr-16 20:00N 25°47' W 080°11'0 0.0
2018-Apr-16 19:30N 25°47' W 080°11'0 0.0
2018-Apr-16 19:00N 25°47' W 080°11'0 0.0
2018-Apr-16 18:30N 25°47' W 080°11'0 0.0
2018-Apr-16 18:00N 25°47' W 080°11'0 0.0
2018-Apr-16 17:30N 25°47' W 080°11'0 0.7
2018-Apr-16 17:00N 25°47' W 080°10'1 1.4
2018-Apr-16 16:29N 25°46' W 080°10'0 0.0
2018-Apr-16 15:59N 25°46' W 080°10'0 0.0
2018-Apr-16 15:29N 25°46' W 080°10'0 0.0
2018-Apr-16 14:59N 25°46' W 080°10'0 0.0
2018-Apr-16 14:29N 25°46' W 080°10'0 0.0
2018-Apr-16 13:59N 25°46' W 080°10'0 0.0
2018-Apr-16 13:29N 25°46' W 080°10'0 0.0
2018-Apr-16 12:59N 25°46' W 080°10'0 0.0
2018-Apr-16 12:29N 25°46' W 080°10'0 0.0
2018-Apr-16 11:59N 25°46' W 080°10'0 0.0
2018-Apr-16 11:29N 25°46' W 080°10'0 0.0
2018-Apr-16 10:56N 25°46' W 080°10'0 0.0
2018-Apr-16 10:29N 25°46' W 080°10'0 0.0
2018-Apr-16 09:59N 25°46' W 080°10'0 0.0
2018-Apr-16 09:29N 25°46' W 080°10'0 0.0
2018-Apr-16 08:59N 25°46' W 080°10'0 0.0
2018-Apr-16 08:26N 25°46' W 080°10'0 0.0
2018-Apr-16 07:59N 25°46' W 080°10'0 0.0
2018-Apr-16 07:26N 25°46' W 080°10'0 0.0
2018-Apr-16 06:59N 25°46' W 080°10'0 0.0
2018-Apr-16 06:29N 25°46' W 080°10'0 0.0
2018-Apr-16 05:53N 25°46' W 080°10'0 0.0
2018-Apr-16 05:26N 25°46' W 080°10'0 0.0
2018-Apr-16 04:53N 25°46' W 080°10'0 0.0
2018-Apr-16 04:26N 25°46' W 080°10'0 0.0
2018-Apr-16 03:59N 25°46' W 080°10'0 0.0
2018-Apr-16 03:26N 25°46' W 080°10'0 0.0
2018-Apr-16 02:59N 25°46' W 080°10'0 0.0
2018-Apr-16 02:29N 25°46' W 080°10'0 0.0
2018-Apr-16 01:59N 25°46' W 080°10'0 0.0
2018-Apr-16 01:29N 25°46' W 080°10'0 0.0
2018-Apr-16 01:00N 25°46' W 080°10'0 0.0
2018-Apr-16 00:30N 25°46' W 080°10'0 0.0
2018-Apr-16 00:00N 25°46' W 080°10'0 0.0
2018-Apr-15 23:29N 25°46' W 080°10'0 0.0
2018-Apr-15 23:00N 25°46' W 080°10'0 0.0
2018-Apr-15 22:30N 25°46' W 080°10'0 0.0
2018-Apr-15 22:00N 25°46' W 080°10'0 0.0
2018-Apr-15 21:30N 25°46' W 080°10'0 0.0
2018-Apr-15 21:00N 25°46' W 080°10'0 0.0
2018-Apr-15 20:30N 25°46' W 080°10'0 0.0
2018-Apr-15 20:00N 25°46' W 080°10'0 0.0
2018-Apr-15 19:30N 25°46' W 080°10'0 0.0
2018-Apr-15 19:00N 25°46' W 080°10'0 0.0
2018-Apr-15 18:30N 25°46' W 080°10'0 0.0
2018-Apr-15 18:00N 25°46' W 080°10'0 0.0
2018-Apr-15 17:29N 25°46' W 080°10'0 0.4
2018-Apr-15 17:01N 25°47' W 080°10'0 0.6
2018-Apr-15 16:29N 25°47' W 080°10'0 0.0
2018-Apr-15 15:59N 25°47' W 080°10'0 0.0
2018-Apr-15 15:29N 25°47' W 080°10'0 0.0
2018-Apr-15 14:59N 25°47' W 080°10'0 0.0
2018-Apr-15 14:29N 25°47' W 080°10'0 0.0
2018-Apr-15 13:59N 25°47' W 080°10'0 0.0
2018-Apr-15 13:29N 25°47' W 080°10'0 0.0
2018-Apr-15 12:56N 25°47' W 080°10'0 0.0
2018-Apr-15 12:29N 25°47' W 080°10'0 0.0
2018-Apr-15 11:59N 25°47' W 080°10'0 0.2
2018-Apr-15 11:31N 25°47' W 080°10'0 0.8
2018-Apr-15 10:59N 25°46' W 080°10'0 0.0
2018-Apr-15 10:29N 25°46' W 080°10'0 0.0
2018-Apr-15 09:59N 25°46' W 080°10'0 0.0
2018-Apr-15 09:29N 25°46' W 080°10'0 0.0
2018-Apr-15 08:59N 25°46' W 080°10'0 0.0
2018-Apr-15 08:29N 25°46' W 080°10'0 0.0
2018-Apr-15 07:59N 25°46' W 080°10'0 0.0
2018-Apr-15 07:29N 25°46' W 080°10'0 0.0
2018-Apr-15 06:59N 25°46' W 080°10'0 0.0
2018-Apr-15 06:29N 25°46' W 080°10'0 0.0
2018-Apr-15 05:59N 25°46' W 080°10'0 0.0
2018-Apr-15 05:29N 25°46' W 080°10'0 0.0
2018-Apr-15 04:59N 25°46' W 080°10'0 0.0
2018-Apr-15 04:29N 25°46' W 080°10'0 0.0
2018-Apr-15 03:59N 25°46' W 080°10'0 0.0
2018-Apr-15 03:29N 25°46' W 080°10'0 0.0
2018-Apr-15 02:59N 25°46' W 080°10'0 0.0
2018-Apr-15 02:29N 25°46' W 080°10'0 0.0
2018-Apr-15 01:59N 25°46' W 080°10'0 0.0
2018-Apr-15 01:29N 25°46' W 080°10'0 0.0
2018-Apr-15 00:59N 25°46' W 080°10'0 0.0
2018-Apr-15 00:26N 25°46' W 080°10'0 0.0
2018-Apr-14 23:59N 25°46' W 080°10'0 0.0
2018-Apr-14 23:29N 25°46' W 080°10'0 0.0
2018-Apr-14 22:59N 25°46' W 080°10'0 0.4
2018-Apr-14 22:30N 25°46' W 080°10'0 0.9
2018-Apr-14 22:00N 25°46' W 080°10'0 0.9
2018-Apr-14 21:30N 25°47' W 080°10'0 0.0
2018-Apr-14 21:00N 25°47' W 080°10'0 0.0
2018-Apr-14 20:30N 25°47' W 080°10'0 0.0
2018-Apr-14 20:00N 25°47' W 080°10'0 0.0
2018-Apr-14 19:30N 25°47' W 080°10'0 0.0
2018-Apr-14 19:00N 25°47' W 080°10'0 0.0
2018-Apr-14 18:30N 25°47' W 080°10'0 0.0
2018-Apr-14 18:00N 25°47' W 080°10'0 0.9
2018-Apr-14 17:30N 25°46' W 080°10'1 2.9
2018-Apr-14 17:00N 25°46' W 080°09'2 3.6
2018-Apr-14 16:30N 25°47' W 080°11'0 0.0
2018-Apr-14 16:00N 25°47' W 080°11'1 1.2
2018-Apr-14 15:30N 25°47' W 080°10'0 0.0
2018-Apr-14 15:00N 25°47' W 080°10'0 0.0
2018-Apr-14 14:30N 25°47' W 080°10'0 0.0
2018-Apr-14 14:00N 25°47' W 080°10'0 0.0
2018-Apr-14 13:30N 25°47' W 080°10'0 0.0
2018-Apr-14 13:00N 25°47' W 080°10'1 2.2
2018-Apr-14 12:30N 25°46' W 080°09'1 2.4
2018-Apr-14 12:00N 25°46' W 080°10'1 1.3
2018-Apr-14 11:30N 25°47' W 080°11'0 0.6
2018-Apr-14 11:00N 25°47' W 080°10'1 1.4
2018-Apr-14 10:30N 25°46' W 080°10'1 1.3
2018-Apr-14 10:00N 25°46' W 080°11'0 0.0
2018-Apr-14 09:30N 25°46' W 080°11'0 0.0
2018-Apr-14 09:00N 25°46' W 080°11'0 0.0
2018-Apr-14 08:30N 25°46' W 080°11'0 0.0
2018-Apr-14 08:00N 25°46' W 080°11'0 0.0
2018-Apr-14 07:30N 25°46' W 080°11'0 0.0
2018-Apr-14 07:00N 25°46' W 080°11'0 0.0
2018-Apr-14 06:30N 25°46' W 080°11'0 0.0
2018-Apr-14 06:00N 25°46' W 080°11'0 0.0
2018-Apr-14 05:30N 25°46' W 080°11'0 0.0
2018-Apr-14 05:00N 25°46' W 080°11'0 0.0
2018-Apr-14 04:30N 25°46' W 080°11'0 0.0
2018-Apr-14 03:54N 25°46' W 080°11'0 0.0
2018-Apr-14 03:30N 25°46' W 080°11'0 0.0
2018-Apr-14 03:00N 25°46' W 080°11'0 0.0
2018-Apr-14 02:30N 25°46' W 080°11'0 0.0
2018-Apr-14 02:00N 25°46' W 080°11'0 0.0
2018-Apr-14 01:30N 25°46' W 080°11'0 0.0
2018-Apr-14 00:57N 25°46' W 080°11'0 0.0
2018-Apr-14 00:30N 25°46' W 080°11'0 0.0
2018-Apr-14 00:00N 25°46' W 080°11'0 0.0
2018-Apr-13 23:27N 25°46' W 080°11'0 0.0
2018-Apr-13 23:00N 25°46' W 080°11'0 0.0
2018-Apr-13 22:30N 25°46' W 080°11'0 0.0
2018-Apr-13 21:54N 25°46' W 080°11'0 0.0
2018-Apr-13 21:30N 25°46' W 080°11'0 0.0
2018-Apr-13 21:00N 25°46' W 080°11'0 0.0
2018-Apr-13 20:30N 25°46' W 080°11'0 0.0
2018-Apr-13 20:00N 25°46' W 080°11'0 0.0
2018-Apr-13 19:30N 25°46' W 080°11'0 0.0
2018-Apr-13 19:00N 25°46' W 080°11'0 0.0
2018-Apr-13 18:30N 25°46' W 080°11'0 0.0
2018-Apr-13 18:00N 25°46' W 080°11'0 0.0
2018-Apr-13 17:30N 25°46' W 080°11'0 0.0
2018-Apr-13 17:00N 25°46' W 080°11'1 2.4
2018-Apr-13 16:30N 25°46' W 080°09'1 2.0
2018-Apr-13 16:00N 25°47' W 080°10'0 0.0
2018-Apr-13 15:30N 25°47' W 080°10'0 0.0
2018-Apr-13 15:00N 25°47' W 080°10'0 0.0
2018-Apr-13 14:30N 25°47' W 080°10'0 0.0
2018-Apr-13 14:00N 25°47' W 080°10'0 0.0
2018-Apr-13 13:30N 25°47' W 080°10'0 0.0
2018-Apr-13 12:57N 25°47' W 080°10'0 0.0
2018-Apr-13 12:30N 25°47' W 080°10'0 0.0
2018-Apr-13 12:00N 25°47' W 080°10'0 0.4
2018-Apr-13 11:30N 25°47' W 080°10'1 1.2
2018-Apr-13 11:00N 25°46' W 080°10'0 0.0
2018-Apr-13 10:22N 25°46' W 080°10'0 0.0
2018-Apr-13 09:58N 25°46' W 080°10'0 0.0
2018-Apr-13 09:28N 25°46' W 080°10'0 0.0
2018-Apr-13 08:58N 25°46' W 080°10'0 0.0
2018-Apr-13 08:28N 25°46' W 080°10'0 0.0
2018-Apr-13 07:58N 25°46' W 080°10'0 0.0
2018-Apr-13 07:28N 25°46' W 080°10'0 0.0
2018-Apr-13 06:49N 25°46' W 080°10'0 0.0
2018-Apr-13 06:28N 25°46' W 080°10'0 0.0
2018-Apr-13 05:58N 25°46' W 080°10'0 0.0
2018-Apr-13 05:28N 25°46' W 080°10'0 0.0
2018-Apr-13 04:58N 25°46' W 080°10'0 0.0
2018-Apr-13 04:25N 25°46' W 080°10'0 0.0
2018-Apr-13 03:58N 25°46' W 080°10'0 0.0
2018-Apr-13 03:28N 25°46' W 080°10'0 0.0
2018-Apr-13 02:58N 25°46' W 080°10'0 0.0
2018-Apr-13 02:28N 25°46' W 080°10'0 0.0
2018-Apr-13 01:58N 25°46' W 080°10'0 0.0
2018-Apr-13 01:28N 25°46' W 080°10'0 0.0
2018-Apr-13 00:58N 25°46' W 080°10'0 0.0
2018-Apr-13 00:25N 25°46' W 080°10'0 0.0
2018-Apr-12 23:58N 25°46' W 080°10'0 0.0
2018-Apr-12 23:28N 25°46' W 080°10'0 0.0
2018-Apr-12 22:58N 25°46' W 080°10'0 0.0
2018-Apr-12 22:25N 25°46' W 080°10'0 0.0
2018-Apr-12 21:58N 25°46' W 080°10'0 0.0
2018-Apr-12 21:25N 25°46' W 080°10'0 0.0
2018-Apr-12 20:58N 25°46' W 080°10'0 0.0
2018-Apr-12 20:28N 25°46' W 080°10'0 0.0
2018-Apr-12 19:58N 25°46' W 080°10'0 0.0
2018-Apr-12 19:30N 25°46' W 080°10'0 0.1
2018-Apr-12 19:01N 25°46' W 080°10'0 0.9
2018-Apr-12 18:30N 25°46' W 080°10'1 2.7
2018-Apr-12 18:00N 25°46' W 080°08'0 0.3
2018-Apr-12 17:29N 25°46' W 080°08'0 0.0
2018-Apr-12 16:50N 25°46' W 080°08'0 0.0
2018-Apr-12 16:29N 25°46' W 080°08'0 0.0
2018-Apr-12 15:59N 25°46' W 080°08'0 0.0
2018-Apr-12 15:29N 25°46' W 080°08'0 0.3
2018-Apr-12 15:00N 25°46' W 080°09'0 0.0
2018-Apr-12 14:30N 25°46' W 080°09'0 0.0
2018-Apr-12 14:00N 25°46' W 080°09'1 1.5
2018-Apr-12 13:30N 25°46' W 080°09'1 1.2
2018-Apr-12 12:58N 25°46' W 080°10'0 0.0
2018-Apr-12 12:28N 25°46' W 080°10'0 0.0
2018-Apr-12 12:01N 25°46' W 080°10'0 0.0
2018-Apr-12 11:25N 25°46' W 080°10'0 0.0
2018-Apr-12 10:58N 25°46' W 080°10'0 0.0
2018-Apr-12 10:31N 25°46' W 080°10'0 0.0
2018-Apr-12 09:58N 25°46' W 080°10'0 0.0
2018-Apr-12 09:25N 25°46' W 080°10'0 0.0
2018-Apr-12 09:01N 25°46' W 080°10'0 0.0
2018-Apr-12 08:31N 25°46' W 080°10'0 0.0
2018-Apr-12 08:01N 25°46' W 080°10'0 0.0
2018-Apr-12 07:31N 25°46' W 080°10'0 0.4
2018-Apr-12 06:59N 25°46' W 080°10'0 0.0
2018-Apr-12 06:26N 25°46' W 080°10'0 0.0
2018-Apr-12 05:56N 25°46' W 080°10'0 0.0
2018-Apr-12 05:20N 25°46' W 080°10'0 0.0
2018-Apr-12 04:59N 25°46' W 080°10'0 0.0
2018-Apr-12 04:29N 25°46' W 080°10'0 0.0
2018-Apr-12 03:59N 25°46' W 080°10'0 0.0
2018-Apr-12 03:29N 25°46' W 080°10'0 0.0
2018-Apr-12 02:59N 25°46' W 080°10'0 0.0
2018-Apr-12 02:29N 25°46' W 080°10'0 0.0
2018-Apr-12 01:59N 25°46' W 080°10'0 0.0
2018-Apr-12 01:29N 25°46' W 080°10'0 0.0
2018-Apr-12 00:59N 25°46' W 080°10'0 0.0
2018-Apr-12 00:29N 25°46' W 080°10'0 0.0
2018-Apr-11 23:56N 25°46' W 080°10'0 0.0
2018-Apr-11 23:29N 25°46' W 080°10'0 0.0
2018-Apr-11 22:59N 25°46' W 080°10'0 0.0
2018-Apr-11 22:29N 25°46' W 080°10'0 0.0
2018-Apr-11 21:59N 25°46' W 080°10'0 0.0
2018-Apr-11 21:29N 25°46' W 080°10'0 0.0
2018-Apr-11 20:59N 25°46' W 080°10'0 0.0
2018-Apr-11 20:29N 25°46' W 080°10'0 0.0
2018-Apr-11 19:59N 25°46' W 080°10'0 0.0
2018-Apr-11 19:29N 25°46' W 080°10'0 0.0
2018-Apr-11 19:00N 25°46' W 080°10'1 2.4
2018-Apr-11 18:30N 25°46' W 080°09'1 1.8
2018-Apr-11 18:00N 25°46' W 080°10'1 2.2
2018-Apr-11 17:30N 25°46' W 080°09'0 0.6
2018-Apr-11 17:00N 25°46' W 080°08'0 0.0
2018-Apr-11 16:30N 25°46' W 080°08'2 3.4
2018-Apr-11 16:00N 25°46' W 080°10'0 1.0
2018-Apr-11 15:30N 25°46' W 080°10'1 1.0
2018-Apr-11 15:01N 25°46' W 080°10'0 0.4
2018-Apr-11 14:28N 25°46' W 080°11'0 0.0
2018-Apr-11 13:58N 25°46' W 080°11'0 0.0
2018-Apr-11 13:25N 25°46' W 080°11'0 0.0
2018-Apr-11 12:55N 25°46' W 080°11'0 0.0
2018-Apr-11 12:28N 25°46' W 080°11'0 0.0
2018-Apr-11 11:58N 25°46' W 080°11'0 0.0
2018-Apr-11 11:28N 25°46' W 080°11'0 0.0
2018-Apr-11 10:58N 25°46' W 080°11'0 0.0
2018-Apr-11 10:30N 25°46' W 080°11'0 0.0
2018-Apr-11 10:00N 25°46' W 080°11'0 0.0
2018-Apr-11 09:30N 25°46' W 080°11'0 0.0
2018-Apr-11 09:00N 25°46' W 080°11'0 0.0
2018-Apr-11 08:30N 25°46' W 080°11'0 0.0
2018-Apr-11 08:00N 25°46' W 080°11'0 0.0
2018-Apr-11 07:30N 25°46' W 080°11'0 0.0
2018-Apr-11 07:00N 25°46' W 080°11'0 0.0
2018-Apr-11 06:30N 25°46' W 080°11'0 0.0
2018-Apr-11 06:00N 25°46' W 080°11'0 0.0
2018-Apr-11 05:30N 25°46' W 080°11'0 0.0
2018-Apr-11 05:00N 25°46' W 080°11'0 0.0
2018-Apr-11 04:30N 25°46' W 080°11'0 0.0
2018-Apr-11 04:00N 25°46' W 080°11'0 0.0
2018-Apr-11 03:30N 25°46' W 080°11'0 0.0
2018-Apr-11 03:00N 25°46' W 080°11'0 0.0
2018-Apr-11 02:30N 25°46' W 080°11'0 0.0
2018-Apr-11 02:00N 25°46' W 080°11'0 0.0
2018-Apr-11 01:30N 25°46' W 080°11'0 0.0
2018-Apr-11 01:00N 25°46' W 080°11'0 0.0
2018-Apr-11 00:30N 25°46' W 080°11'0 0.0
2018-Apr-10 23:59N 25°46' W 080°11'0 0.0
2018-Apr-10 23:30N 25°46' W 080°11'0 0.0
2018-Apr-10 23:00N 25°46' W 080°11'0 0.0
2018-Apr-10 22:30N 25°46' W 080°11'1 2.8
2018-Apr-10 22:00N 25°46' W 080°09'2 3.4
2018-Apr-10 21:29N 25°47' W 080°11'0 0.0
2018-Apr-10 20:59N 25°47' W 080°11'0 0.0
2018-Apr-10 20:29N 25°47' W 080°11'0 0.0
2018-Apr-10 19:59N 25°47' W 080°11'0 0.0
2018-Apr-10 19:29N 25°47' W 080°11'0 0.0
2018-Apr-10 18:57N 25°47' W 080°11'0 0.0
2018-Apr-10 18:24N 25°47' W 080°11'0 0.0
2018-Apr-10 18:00N 25°47' W 080°11'0 1.0
2018-Apr-10 17:30N 25°46' W 080°11'1 2.9
2018-Apr-10 17:00N 25°46' W 080°09'1 1.4
2018-Apr-10 16:30N 25°46' W 080°10'0 0.8
2018-Apr-10 16:00N 25°46' W 080°10'0 0.0
2018-Apr-10 15:30N 25°46' W 080°10'0 0.0
2018-Apr-10 15:00N 25°46' W 080°10'0 0.0
2018-Apr-10 14:30N 25°46' W 080°10'0 0.0
2018-Apr-10 14:00N 25°46' W 080°10'0 0.0
2018-Apr-10 13:30N 25°46' W 080°10'0 0.0
2018-Apr-10 13:00N 25°46' W 080°10'0 0.0
2018-Apr-10 12:30N 25°46' W 080°10'0 0.0
2018-Apr-10 12:00N 25°46' W 080°10'1 1.1
2018-Apr-10 11:30N 25°46' W 080°09'1 1.3
2018-Apr-10 11:00N 25°46' W 080°10'0 0.0
2018-Apr-10 10:28N 25°46' W 080°10'0 0.0
2018-Apr-10 09:58N 25°46' W 080°10'0 0.0
2018-Apr-10 09:28N 25°46' W 080°10'0 0.0
2018-Apr-10 08:58N 25°46' W 080°10'0 0.0
2018-Apr-10 08:31N 25°46' W 080°10'0 0.0
2018-Apr-10 07:58N 25°46' W 080°10'0 0.0
2018-Apr-10 07:28N 25°46' W 080°10'0 0.0
2018-Apr-10 06:55N 25°46' W 080°10'0 0.0
2018-Apr-10 06:31N 25°46' W 080°10'0 0.0
2018-Apr-10 05:58N 25°46' W 080°10'0 0.0
2018-Apr-10 05:28N 25°46' W 080°10'0 0.0
2018-Apr-10 05:01N 25°46' W 080°10'  
Track history (hours):
 
Tides and Currents Weather Stations Pressure Air Temp Water Temp Dewpoint Dewpoint Depression Visibility Wind Speed Wind Dir Waves Ship Positions

Dade

Owner: Kirby Inland Marine LP, Houston, TX. More information available from US FCC via Universal Licensing System and Coast Guard Vessel Documentation Center.

Last reported at 2018-Apr-20 05:00 UTC. Time now 2018-Apr-20 05:10 UTC.
Position N 25°46' W 080°10'.

Length 93 m; draft 3.7 m.

Type: Tug. MMSI: 367479540.

Date/timePositionNaut miles runAvg speedWind from/ knotsBaromVisibWave heightAir tempDewpointWater temp
2018-Apr-20 05:00N 25°46' W 080°10'0 0.0
2018-Apr-20 04:30N 25°46' W 080°10'0 0.0
2018-Apr-20 04:00N 25°46' W 080°10'0 0.0
2018-Apr-20 03:30N 25°46' W 080°10'0 0.0
2018-Apr-20 03:00N 25°46' W 080°10'0 0.0
2018-Apr-20 02:30N 25°46' W 080°10'0 0.0
2018-Apr-20 02:00N 25°46' W 080°10'0 0.0
2018-Apr-20 01:31N 25°46' W 080°10'0 0.6
2018-Apr-20 01:00N 25°47' W 080°10'2 3.2
2018-Apr-20 00:30N 25°46' W 080°08'0 0.0
2018-Apr-20 00:01N 25°46' W 080°08'0 0.0
2018-Apr-19 23:31N 25°46' W 080°08'0 0.0
2018-Apr-19 23:01N 25°46' W 080°08'0 0.0
2018-Apr-19 22:30N 25°46' W 080°08'0 0.0
2018-Apr-19 22:01N 25°46' W 080°08'0 0.0
2018-Apr-19 21:31N 25°46' W 080°08'0 0.0
2018-Apr-19 21:00N 25°46' W 080°08'0 0.0
2018-Apr-19 20:30N 25°46' W 080°08'0 0.0
2018-Apr-19 20:00N 25°46' W 080°08'0 0.0
2018-Apr-19 19:30N 25°46' W 080°08'0 0.0
2018-Apr-19 19:00N 25°46' W 080°08'0 0.0
2018-Apr-19 18:31N 25°46' W 080°08'0 0.0
2018-Apr-19 18:00N 25°46' W 080°08'2 3.2
2018-Apr-19 17:31N 25°47' W 080°10'0 1.0
2018-Apr-19 17:00N 25°46' W 080°10'0 0.0
2018-Apr-19 16:30N 25°46' W 080°10'0 0.0
2018-Apr-19 16:00N 25°46' W 080°10'0 0.0
2018-Apr-19 15:31N 25°46' W 080°10'0 0.0
2018-Apr-19 15:00N 25°46' W 080°10'0 0.0
2018-Apr-19 14:31N 25°46' W 080°10'0 0.0
2018-Apr-19 14:00N 25°46' W 080°10'0 0.0
2018-Apr-19 13:31N 25°46' W 080°10'0 0.0
2018-Apr-19 13:01N 25°46' W 080°10'0 0.0
2018-Apr-19 12:29N 25°46' W 080°10'0 0.0
2018-Apr-19 12:00N 25°46' W 080°10'0 0.0
2018-Apr-19 11:30N 25°46' W 080°10'0 0.0
2018-Apr-19 11:00N 25°46' W 080°10'0 0.0
2018-Apr-19 10:30N 25°46' W 080°10'0 0.0
2018-Apr-19 09:59N 25°46' W 080°10'0 0.0
2018-Apr-19 09:30N 25°46' W 080°10'0 0.0
2018-Apr-19 09:00N 25°46' W 080°10'0 0.0
2018-Apr-19 08:31N 25°46' W 080°10'0 0.0
2018-Apr-19 07:59N 25°46' W 080°10'0 0.0
2018-Apr-19 07:30N 25°46' W 080°10'0 0.0
2018-Apr-19 07:01N 25°46' W 080°10'1 1.3
2018-Apr-19 06:31N 25°46' W 080°09'3 5.5
2018-Apr-19 06:01N 25°46' W 080°06'2 3.1
2018-Apr-19 05:30N 25°47' W 080°05'3 5.6
2018-Apr-19 05:00N 25°49' W 080°02'2 4.6
2018-Apr-19 04:31N 25°51' W 080°02'2 4.2
2018-Apr-19 04:01N 25°53' W 080°02'2 4.1
2018-Apr-19 03:31N 25°55' W 080°02'2 4.0
2018-Apr-19 03:00N 25°57' W 080°02'2 4.0
2018-Apr-19 02:29N 25°59' W 080°02'2 4.0
2018-Apr-19 02:00N 26°01' W 080°02'2 4.3
2018-Apr-19 01:30N 26°03' W 080°03'3 6.0
2018-Apr-19 01:00N 26°05' W 080°05'2 3.8
2018-Apr-19 00:30N 26°06' W 080°07'0 0.3
2018-Apr-19 00:00N 26°06' W 080°07'0 0.0
2018-Apr-18 23:30N 26°06' W 080°07'0 0.0
2018-Apr-18 23:00N 26°06' W 080°07'0 0.0
2018-Apr-18 22:30N 26°06' W 080°07'0 0.0
2018-Apr-18 22:00N 26°06' W 080°07'0 0.0
2018-Apr-18 21:30N 26°06' W 080°07'0 0.0
2018-Apr-18 21:00N 26°06' W 080°07'0 0.0
2018-Apr-18 20:30N 26°06' W 080°07'0 0.0
2018-Apr-18 20:00N 26°06' W 080°07'0 0.0
2018-Apr-18 19:30N 26°06' W 080°07'0 0.0
2018-Apr-18 19:00N 26°06' W 080°07'1 1.7
2018-Apr-18 18:30N 26°06' W 080°06'2 4.5
2018-Apr-18 18:00N 26°04' W 080°04'5 9.9
2018-Apr-18 17:30N 25°60' W 080°02'612.9
2018-Apr-18 17:00N 25°53' W 080°02'612.3
2018-Apr-18 16:30N 25°48' W 080°04'4 7.2
2018-Apr-18 16:00N 25°45' W 080°07'3 5.2
2018-Apr-18 15:30N 25°46' W 080°10'0 0.3
2018-Apr-18 14:59N 25°46' W 080°10'1 1.2
2018-Apr-18 14:30N 25°46' W 080°11'0 0.0
2018-Apr-18 14:00N 25°46' W 080°11'0 0.0
2018-Apr-18 13:24N 25°46' W 080°11'0 0.0
2018-Apr-18 13:00N 25°46' W 080°11'0 0.0
2018-Apr-18 12:30N 25°46' W 080°11'0 0.0
2018-Apr-18 12:00N 25°46' W 080°11'0 0.0
2018-Apr-18 11:30N 25°46' W 080°11'0 0.0
2018-Apr-18 11:00N 25°46' W 080°11'0 0.0
2018-Apr-18 10:30N 25°46' W 080°11'0 0.0
2018-Apr-18 10:00N 25°46' W 080°11'0 0.0
2018-Apr-18 09:30N 25°46' W 080°11'0 0.0
2018-Apr-18 09:00N 25°46' W 080°11'0 0.0
2018-Apr-18 08:30N 25°46' W 080°11'0 0.0
2018-Apr-18 08:00N 25°46' W 080°11'0 0.0
2018-Apr-18 07:30N 25°46' W 080°11'0 0.0
2018-Apr-18 07:00N 25°46' W 080°11'0 0.0
2018-Apr-18 06:30N 25°46' W 080°11'0 0.0
2018-Apr-18 06:00N 25°46' W 080°11'0 0.0
2018-Apr-18 05:30N 25°46' W 080°11'0 0.0
2018-Apr-18 05:00N 25°46' W 080°11'0 0.0
2018-Apr-18 04:30N 25°46' W 080°11'0 0.0
2018-Apr-18 04:00N 25°46' W 080°11'0 0.0
2018-Apr-18 03:30N 25°46' W 080°11'0 0.0
2018-Apr-18 03:00N 25°46' W 080°11'0 0.0
2018-Apr-18 02:30N 25°46' W 080°11'0 0.0
2018-Apr-18 02:00N 25°46' W 080°11'0 0.0
2018-Apr-18 01:30N 25°46' W 080°11'0 0.0
2018-Apr-18 01:00N 25°46' W 080°11'0 0.0
2018-Apr-18 00:30N 25°46' W 080°11'0 0.0
2018-Apr-18 00:00N 25°46' W 080°11'0 0.0
2018-Apr-17 23:30N 25°46' W 080°11'0 0.0
2018-Apr-17 23:00N 25°46' W 080°11'0 0.0
2018-Apr-17 22:30N 25°46' W 080°11'0 0.0
2018-Apr-17 22:00N 25°46' W 080°11'0 0.0
2018-Apr-17 21:30N 25°46' W 080°11'0 0.0
2018-Apr-17 21:00N 25°46' W 080°11'0 0.0
2018-Apr-17 20:30N 25°46' W 080°11'0 0.0
2018-Apr-17 20:00N 25°46' W 080°11'1 1.2
2018-Apr-17 19:30N 25°46' W 080°10'0 0.2
2018-Apr-17 19:00N 25°46' W 080°10'1 2.3
2018-Apr-17 18:30N 25°46' W 080°09'0 0.0
2018-Apr-17 18:00N 25°46' W 080°09'0 0.0
2018-Apr-17 17:30N 25°46' W 080°09'1 2.4
2018-Apr-17 17:01N 25°46' W 080°10'1 2.1
2018-Apr-17 16:30N 25°47' W 080°11'0 0.0
2018-Apr-17 16:00N 25°47' W 080°11'0 0.0
2018-Apr-17 15:30N 25°47' W 080°11'0 0.0
2018-Apr-17 15:00N 25°47' W 080°11'0 0.0
2018-Apr-17 14:30N 25°47' W 080°11'0 0.0
2018-Apr-17 14:00N 25°47' W 080°11'0 0.0
2018-Apr-17 13:30N 25°47' W 080°11'0 0.0
2018-Apr-17 13:00N 25°47' W 080°11'0 0.0
2018-Apr-17 12:30N 25°47' W 080°11'0 0.0
2018-Apr-17 12:00N 25°47' W 080°11'0 0.0
2018-Apr-17 11:30N 25°47' W 080°11'0 0.0
2018-Apr-17 11:00N 25°47' W 080°11'0 0.0
2018-Apr-17 10:30N 25°47' W 080°11'0 0.0
2018-Apr-17 10:00N 25°47' W 080°11'0 0.0
2018-Apr-17 09:30N 25°47' W 080°11'0 0.0
2018-Apr-17 09:00N 25°47' W 080°11'0 0.0
2018-Apr-17 08:30N 25°47' W 080°11'0 0.0
2018-Apr-17 08:00N 25°47' W 080°11'0 0.0
2018-Apr-17 07:30N 25°47' W 080°11'0 0.0
2018-Apr-17 07:00N 25°47' W 080°11'0 0.0
2018-Apr-17 06:30N 25°47' W 080°11'0 0.0
2018-Apr-17 06:00N 25°47' W 080°11'0 0.0
2018-Apr-17 05:30N 25°47' W 080°11'0 0.0
2018-Apr-17 05:00N 25°47' W 080°11'0 0.0
2018-Apr-17 04:30N 25°47' W 080°11'0 0.0
2018-Apr-17 04:00N 25°47' W 080°11'0 0.0
2018-Apr-17 03:30N 25°47' W 080°11'0 0.0
2018-Apr-17 03:00N 25°47' W 080°11'0 0.0
2018-Apr-17 02:30N 25°47' W 080°11'0 0.0
2018-Apr-17 02:00N 25°47' W 080°11'0 0.0
2018-Apr-17 01:30N 25°47' W 080°11'0 0.0
2018-Apr-17 01:00N 25°47' W 080°11'0 0.0
2018-Apr-17 00:30N 25°47' W 080°11'0 0.0
2018-Apr-17 00:00N 25°47' W 080°11'0 0.0
2018-Apr-16 23:30N 25°47' W 080°11'0 0.0
2018-Apr-16 23:00N 25°47' W 080°11'0 0.0
2018-Apr-16 22:30N 25°47' W 080°11'0 0.0
2018-Apr-16 22:00N 25°47' W 080°11'0 0.0
2018-Apr-16 21:30N 25°47' W 080°11'0 0.0
2018-Apr-16 21:00N 25°47' W 080°11'0 0.0
2018-Apr-16 20:30N 25°47' W 080°11'0 0.0
2018-Apr-16 20:00N 25°47' W 080°11'0 0.0
2018-Apr-16 19:30N 25°47' W 080°11'0 0.0
2018-Apr-16 19:00N 25°47' W 080°11'0 0.0
2018-Apr-16 18:30N 25°47' W 080°11'0 0.0
2018-Apr-16 18:00N 25°47' W 080°11'0 0.0
2018-Apr-16 17:30N 25°47' W 080°11'0 0.7
2018-Apr-16 17:00N 25°47' W 080°10'1 1.4
2018-Apr-16 16:29N 25°46' W 080°10'0 0.0
2018-Apr-16 15:59N 25°46' W 080°10'0 0.0
2018-Apr-16 15:29N 25°46' W 080°10'0 0.0
2018-Apr-16 14:59N 25°46' W 080°10'0 0.0
2018-Apr-16 14:29N 25°46' W 080°10'0 0.0
2018-Apr-16 13:59N 25°46' W 080°10'0 0.0
2018-Apr-16 13:29N 25°46' W 080°10'0 0.0
2018-Apr-16 12:59N 25°46' W 080°10'0 0.0
2018-Apr-16 12:29N 25°46' W 080°10'0 0.0
2018-Apr-16 11:59N 25°46' W 080°10'0 0.0
2018-Apr-16 11:29N 25°46' W 080°10'0 0.0
2018-Apr-16 10:56N 25°46' W 080°10'0 0.0
2018-Apr-16 10:29N 25°46' W 080°10'0 0.0
2018-Apr-16 09:59N 25°46' W 080°10'0 0.0
2018-Apr-16 09:29N 25°46' W 080°10'0 0.0
2018-Apr-16 08:59N 25°46' W 080°10'0 0.0
2018-Apr-16 08:26N 25°46' W 080°10'0 0.0
2018-Apr-16 07:59N 25°46' W 080°10'0 0.0
2018-Apr-16 07:26N 25°46' W 080°10'0 0.0
2018-Apr-16 06:59N 25°46' W 080°10'0 0.0
2018-Apr-16 06:29N 25°46' W 080°10'0 0.0
2018-Apr-16 05:53N 25°46' W 080°10'0 0.0
2018-Apr-16 05:26N 25°46' W 080°10'0 0.0
2018-Apr-16 04:53N 25°46' W 080°10'0 0.0
2018-Apr-16 04:26N 25°46' W 080°10'0 0.0
2018-Apr-16 03:59N 25°46' W 080°10'0 0.0
2018-Apr-16 03:26N 25°46' W 080°10'0 0.0
2018-Apr-16 02:59N 25°46' W 080°10'0 0.0
2018-Apr-16 02:29N 25°46' W 080°10'0 0.0
2018-Apr-16 01:59N 25°46' W 080°10'0 0.0
2018-Apr-16 01:29N 25°46' W 080°10'0 0.0
2018-Apr-16 01:00N 25°46' W 080°10'0 0.0
2018-Apr-16 00:30N 25°46' W 080°10'0 0.0
2018-Apr-16 00:00N 25°46' W 080°10'0 0.0
2018-Apr-15 23:29N 25°46' W 080°10'0 0.0
2018-Apr-15 23:00N 25°46' W 080°10'0 0.0
2018-Apr-15 22:30N 25°46' W 080°10'0 0.0
2018-Apr-15 22:00N 25°46' W 080°10'0 0.0
2018-Apr-15 21:30N 25°46' W 080°10'0 0.0
2018-Apr-15 21:00N 25°46' W 080°10'0 0.0
2018-Apr-15 20:30N 25°46' W 080°10'0 0.0
2018-Apr-15 20:00N 25°46' W 080°10'0 0.0
2018-Apr-15 19:30N 25°46' W 080°10'0 0.0
2018-Apr-15 19:00N 25°46' W 080°10'0 0.0
2018-Apr-15 18:30N 25°46' W 080°10'0 0.0
2018-Apr-15 18:00N 25°46' W 080°10'0 0.0
2018-Apr-15 17:29N 25°46' W 080°10'0 0.4
2018-Apr-15 17:01N 25°47' W 080°10'0 0.6
2018-Apr-15 16:29N 25°47' W 080°10'0 0.0
2018-Apr-15 15:59N 25°47' W 080°10'0 0.0
2018-Apr-15 15:29N 25°47' W 080°10'0 0.0
2018-Apr-15 14:59N 25°47' W 080°10'0 0.0
2018-Apr-15 14:29N 25°47' W 080°10'0 0.0
2018-Apr-15 13:59N 25°47' W 080°10'0 0.0
2018-Apr-15 13:29N 25°47' W 080°10'0 0.0
2018-Apr-15 12:56N 25°47' W 080°10'0 0.0
2018-Apr-15 12:29N 25°47' W 080°10'0 0.0
2018-Apr-15 11:59N 25°47' W 080°10'0 0.2
2018-Apr-15 11:31N 25°47' W 080°10'0 0.8
2018-Apr-15 10:59N 25°46' W 080°10'0 0.0
2018-Apr-15 10:29N 25°46' W 080°10'0 0.0
2018-Apr-15 09:59N 25°46' W 080°10'0 0.0
2018-Apr-15 09:29N 25°46' W 080°10'0 0.0
2018-Apr-15 08:59N 25°46' W 080°10'0 0.0
2018-Apr-15 08:29N 25°46' W 080°10'0 0.0
2018-Apr-15 07:59N 25°46' W 080°10'0 0.0
2018-Apr-15 07:29N 25°46' W 080°10'0 0.0
2018-Apr-15 06:59N 25°46' W 080°10'0 0.0
2018-Apr-15 06:29N 25°46' W 080°10'0 0.0
2018-Apr-15 05:59N 25°46' W 080°10'0 0.0
2018-Apr-15 05:29N 25°46' W 080°10'0 0.0
2018-Apr-15 04:59N 25°46' W 080°10'0 0.0
2018-Apr-15 04:29N 25°46' W 080°10'0 0.0
2018-Apr-15 03:59N 25°46' W 080°10'0 0.0
2018-Apr-15 03:29N 25°46' W 080°10'0 0.0
2018-Apr-15 02:59N 25°46' W 080°10'0 0.0
2018-Apr-15 02:29N 25°46' W 080°10'0 0.0
2018-Apr-15 01:59N 25°46' W 080°10'0 0.0
2018-Apr-15 01:29N 25°46' W 080°10'0 0.0
2018-Apr-15 00:59N 25°46' W 080°10'0 0.0
2018-Apr-15 00:26N 25°46' W 080°10'0 0.0
2018-Apr-14 23:59N 25°46' W 080°10'0 0.0
2018-Apr-14 23:29N 25°46' W 080°10'0 0.0
2018-Apr-14 22:59N 25°46' W 080°10'0 0.4
2018-Apr-14 22:30N 25°46' W 080°10'0 0.9
2018-Apr-14 22:00N 25°46' W 080°10'0 0.9
2018-Apr-14 21:30N 25°47' W 080°10'0 0.0
2018-Apr-14 21:00N 25°47' W 080°10'0 0.0
2018-Apr-14 20:30N 25°47' W 080°10'0 0.0
2018-Apr-14 20:00N 25°47' W 080°10'0 0.0
2018-Apr-14 19:30N 25°47' W 080°10'0 0.0
2018-Apr-14 19:00N 25°47' W 080°10'0 0.0
2018-Apr-14 18:30N 25°47' W 080°10'0 0.0
2018-Apr-14 18:00N 25°47' W 080°10'0 0.9
2018-Apr-14 17:30N 25°46' W 080°10'1 2.9
2018-Apr-14 17:00N 25°46' W 080°09'2 3.6
2018-Apr-14 16:30N 25°47' W 080°11'0 0.0
2018-Apr-14 16:00N 25°47' W 080°11'1 1.2
2018-Apr-14 15:30N 25°47' W 080°10'0 0.0
2018-Apr-14 15:00N 25°47' W 080°10'0 0.0
2018-Apr-14 14:30N 25°47' W 080°10'0 0.0
2018-Apr-14 14:00N 25°47' W 080°10'0 0.0
2018-Apr-14 13:30N 25°47' W 080°10'0 0.0
2018-Apr-14 13:00N 25°47' W 080°10'1 2.2
2018-Apr-14 12:30N 25°46' W 080°09'1 2.4
2018-Apr-14 12:00N 25°46' W 080°10'1 1.3
2018-Apr-14 11:30N 25°47' W 080°11'0 0.6
2018-Apr-14 11:00N 25°47' W 080°10'1 1.4
2018-Apr-14 10:30N 25°46' W 080°10'1 1.3
2018-Apr-14 10:00N 25°46' W 080°11'0 0.0
2018-Apr-14 09:30N 25°46' W 080°11'0 0.0
2018-Apr-14 09:00N 25°46' W 080°11'0 0.0
2018-Apr-14 08:30N 25°46' W 080°11'0 0.0
2018-Apr-14 08:00N 25°46' W 080°11'0 0.0
2018-Apr-14 07:30N 25°46' W 080°11'0 0.0
2018-Apr-14 07:00N 25°46' W 080°11'0 0.0
2018-Apr-14 06:30N 25°46' W 080°11'0 0.0
2018-Apr-14 06:00N 25°46' W 080°11'0 0.0
2018-Apr-14 05:30N 25°46' W 080°11'0 0.0
2018-Apr-14 05:00N 25°46' W 080°11'0 0.0
2018-Apr-14 04:30N 25°46' W 080°11'0 0.0
2018-Apr-14 03:54N 25°46' W 080°11'0 0.0
2018-Apr-14 03:30N 25°46' W 080°11'0 0.0
2018-Apr-14 03:00N 25°46' W 080°11'0 0.0
2018-Apr-14 02:30N 25°46' W 080°11'0 0.0
2018-Apr-14 02:00N 25°46' W 080°11'0 0.0
2018-Apr-14 01:30N 25°46' W 080°11'0 0.0
2018-Apr-14 00:57N 25°46' W 080°11'0 0.0
2018-Apr-14 00:30N 25°46' W 080°11'0 0.0
2018-Apr-14 00:00N 25°46' W 080°11'0 0.0
2018-Apr-13 23:27N 25°46' W 080°11'0 0.0
2018-Apr-13 23:00N 25°46' W 080°11'0 0.0
2018-Apr-13 22:30N 25°46' W 080°11'0 0.0
2018-Apr-13 21:54N 25°46' W 080°11'0 0.0
2018-Apr-13 21:30N 25°46' W 080°11'0 0.0
2018-Apr-13 21:00N 25°46' W 080°11'0 0.0
2018-Apr-13 20:30N 25°46' W 080°11'0 0.0
2018-Apr-13 20:00N 25°46' W 080°11'0 0.0
2018-Apr-13 19:30N 25°46' W 080°11'0 0.0
2018-Apr-13 19:00N 25°46' W 080°11'0 0.0
2018-Apr-13 18:30N 25°46' W 080°11'0 0.0
2018-Apr-13 18:00N 25°46' W 080°11'0 0.0
2018-Apr-13 17:30N 25°46' W 080°11'0 0.0
2018-Apr-13 17:00N 25°46' W 080°11'1 2.4
2018-Apr-13 16:30N 25°46' W 080°09'1 2.0
2018-Apr-13 16:00N 25°47' W 080°10'0 0.0
2018-Apr-13 15:30N 25°47' W 080°10'0 0.0
2018-Apr-13 15:00N 25°47' W 080°10'0 0.0
2018-Apr-13 14:30N 25°47' W 080°10'0 0.0
2018-Apr-13 14:00N 25°47' W 080°10'0 0.0
2018-Apr-13 13:30N 25°47' W 080°10'0 0.0
2018-Apr-13 12:57N 25°47' W 080°10'0 0.0
2018-Apr-13 12:30N 25°47' W 080°10'0 0.0
2018-Apr-13 12:00N 25°47' W 080°10'0 0.4
2018-Apr-13 11:30N 25°47' W 080°10'1 1.2
2018-Apr-13 11:00N 25°46' W 080°10'0 0.0
2018-Apr-13 10:22N 25°46' W 080°10'0 0.0
2018-Apr-13 09:58N 25°46' W 080°10'0 0.0
2018-Apr-13 09:28N 25°46' W 080°10'0 0.0
2018-Apr-13 08:58N 25°46' W 080°10'0 0.0
2018-Apr-13 08:28N 25°46' W 080°10'0 0.0
2018-Apr-13 07:58N 25°46' W 080°10'0 0.0
2018-Apr-13 07:28N 25°46' W 080°10'0 0.0
2018-Apr-13 06:49N 25°46' W 080°10'0 0.0
2018-Apr-13 06:28N 25°46' W 080°10'0 0.0
2018-Apr-13 05:58N 25°46' W 080°10'0 0.0
2018-Apr-13 05:28N 25°46' W 080°10'0 0.0
2018-Apr-13 04:58N 25°46' W 080°10'0 0.0
2018-Apr-13 04:25N 25°46' W 080°10'0 0.0
2018-Apr-13 03:58N 25°46' W 080°10'0 0.0
2018-Apr-13 03:28N 25°46' W 080°10'0 0.0
2018-Apr-13 02:58N 25°46' W 080°10'0 0.0
2018-Apr-13 02:28N 25°46' W 080°10'0 0.0
2018-Apr-13 01:58N 25°46' W 080°10'0 0.0
2018-Apr-13 01:28N 25°46' W 080°10'0 0.0
2018-Apr-13 00:58N 25°46' W 080°10'0 0.0
2018-Apr-13 00:25N 25°46' W 080°10'0 0.0
2018-Apr-12 23:58N 25°46' W 080°10'0 0.0
2018-Apr-12 23:28N 25°46' W 080°10'0 0.0
2018-Apr-12 22:58N 25°46' W 080°10'0 0.0
2018-Apr-12 22:25N 25°46' W 080°10'0 0.0
2018-Apr-12 21:58N 25°46' W 080°10'0 0.0
2018-Apr-12 21:25N 25°46' W 080°10'0 0.0
2018-Apr-12 20:58N 25°46' W 080°10'0 0.0
2018-Apr-12 20:28N 25°46' W 080°10'0 0.0
2018-Apr-12 19:58N 25°46' W 080°10'0 0.0
2018-Apr-12 19:30N 25°46' W 080°10'0 0.1
2018-Apr-12 19:01N 25°46' W 080°10'0 0.9
2018-Apr-12 18:30N 25°46' W 080°10'1 2.7
2018-Apr-12 18:00N 25°46' W 080°08'0 0.3
2018-Apr-12 17:29N 25°46' W 080°08'0 0.0
2018-Apr-12 16:50N 25°46' W 080°08'0 0.0
2018-Apr-12 16:29N 25°46' W 080°08'0 0.0
2018-Apr-12 15:59N 25°46' W 080°08'0 0.0
2018-Apr-12 15:29N 25°46' W 080°08'0 0.3
2018-Apr-12 15:00N 25°46' W 080°09'0 0.0
2018-Apr-12 14:30N 25°46' W 080°09'0 0.0
2018-Apr-12 14:00N 25°46' W 080°09'1 1.5
2018-Apr-12 13:30N 25°46' W 080°09'1 1.2
2018-Apr-12 12:58N 25°46' W 080°10'0 0.0
2018-Apr-12 12:28N 25°46' W 080°10'0 0.0
2018-Apr-12 12:01N 25°46' W 080°10'0 0.0
2018-Apr-12 11:25N 25°46' W 080°10'0 0.0
2018-Apr-12 10:58N 25°46' W 080°10'0 0.0
2018-Apr-12 10:31N 25°46' W 080°10'0 0.0
2018-Apr-12 09:58N 25°46' W 080°10'0 0.0
2018-Apr-12 09:25N 25°46' W 080°10'0 0.0
2018-Apr-12 09:01N 25°46' W 080°10'0 0.0
2018-Apr-12 08:31N 25°46' W 080°10'0 0.0
2018-Apr-12 08:01N 25°46' W 080°10'0 0.0
2018-Apr-12 07:31N 25°46' W 080°10'0 0.4
2018-Apr-12 06:59N 25°46' W 080°10'0 0.0
2018-Apr-12 06:26N 25°46' W 080°10'0 0.0
2018-Apr-12 05:56N 25°46' W 080°10'0 0.0
2018-Apr-12 05:20N 25°46' W 080°10'0 0.0
2018-Apr-12 04:59N 25°46' W 080°10'0 0.0
2018-Apr-12 04:29N 25°46' W 080°10'0 0.0
2018-Apr-12 03:59N 25°46' W 080°10'0 0.0
2018-Apr-12 03:29N 25°46' W 080°10'0 0.0
2018-Apr-12 02:59N 25°46' W 080°10'0 0.0
2018-Apr-12 02:29N 25°46' W 080°10'0 0.0
2018-Apr-12 01:59N 25°46' W 080°10'0 0.0
2018-Apr-12 01:29N 25°46' W 080°10'0 0.0
2018-Apr-12 00:59N 25°46' W 080°10'0 0.0
2018-Apr-12 00:29N 25°46' W 080°10'0 0.0
2018-Apr-11 23:56N 25°46' W 080°10'0 0.0
2018-Apr-11 23:29N 25°46' W 080°10'0 0.0
2018-Apr-11 22:59N 25°46' W 080°10'0 0.0
2018-Apr-11 22:29N 25°46' W 080°10'0 0.0
2018-Apr-11 21:59N 25°46' W 080°10'0 0.0
2018-Apr-11 21:29N 25°46' W 080°10'0 0.0
2018-Apr-11 20:59N 25°46' W 080°10'0 0.0
2018-Apr-11 20:29N 25°46' W 080°10'0 0.0
2018-Apr-11 19:59N 25°46' W 080°10'0 0.0
2018-Apr-11 19:29N 25°46' W 080°10'0 0.0
2018-Apr-11 19:00N 25°46' W 080°10'1 2.4
2018-Apr-11 18:30N 25°46' W 080°09'1 1.8
2018-Apr-11 18:00N 25°46' W 080°10'1 2.2
2018-Apr-11 17:30N 25°46' W 080°09'0 0.6
2018-Apr-11 17:00N 25°46' W 080°08'0 0.0
2018-Apr-11 16:30N 25°46' W 080°08'2 3.4
2018-Apr-11 16:00N 25°46' W 080°10'0 1.0
2018-Apr-11 15:30N 25°46' W 080°10'1 1.0
2018-Apr-11 15:01N 25°46' W 080°10'0 0.4
2018-Apr-11 14:28N 25°46' W 080°11'0 0.0
2018-Apr-11 13:58N 25°46' W 080°11'0 0.0
2018-Apr-11 13:25N 25°46' W 080°11'0 0.0
2018-Apr-11 12:55N 25°46' W 080°11'0 0.0
2018-Apr-11 12:28N 25°46' W 080°11'0 0.0
2018-Apr-11 11:58N 25°46' W 080°11'0 0.0
2018-Apr-11 11:28N 25°46' W 080°11'0 0.0
2018-Apr-11 10:58N 25°46' W 080°11'0 0.0
2018-Apr-11 10:30N 25°46' W 080°11'0 0.0
2018-Apr-11 10:00N 25°46' W 080°11'0 0.0
2018-Apr-11 09:30N 25°46' W 080°11'0 0.0
2018-Apr-11 09:00N 25°46' W 080°11'0 0.0
2018-Apr-11 08:30N 25°46' W 080°11'0 0.0
2018-Apr-11 08:00N 25°46' W 080°11'0 0.0
2018-Apr-11 07:30N 25°46' W 080°11'0 0.0
2018-Apr-11 07:00N 25°46' W 080°11'0 0.0
2018-Apr-11 06:30N 25°46' W 080°11'0 0.0
2018-Apr-11 06:00N 25°46' W 080°11'0 0.0
2018-Apr-11 05:30N 25°46' W 080°11'0 0.0
2018-Apr-11 05:00N 25°46' W 080°11'0 0.0
2018-Apr-11 04:30N 25°46' W 080°11'0 0.0
2018-Apr-11 04:00N 25°46' W 080°11'0 0.0
2018-Apr-11 03:30N 25°46' W 080°11'0 0.0
2018-Apr-11 03:00N 25°46' W 080°11'0 0.0
2018-Apr-11 02:30N 25°46' W 080°11'0 0.0
2018-Apr-11 02:00N 25°46' W 080°11'0 0.0
2018-Apr-11 01:30N 25°46' W 080°11'0 0.0
2018-Apr-11 01:00N 25°46' W 080°11'0 0.0
2018-Apr-11 00:30N 25°46' W 080°11'0 0.0
2018-Apr-10 23:59N 25°46' W 080°11'0 0.0
2018-Apr-10 23:30N 25°46' W 080°11'0 0.0
2018-Apr-10 23:00N 25°46' W 080°11'0 0.0
2018-Apr-10 22:30N 25°46' W 080°11'1 2.8
2018-Apr-10 22:00N 25°46' W 080°09'2 3.4
2018-Apr-10 21:29N 25°47' W 080°11'0 0.0
2018-Apr-10 20:59N 25°47' W 080°11'0 0.0
2018-Apr-10 20:29N 25°47' W 080°11'0 0.0
2018-Apr-10 19:59N 25°47' W 080°11'0 0.0
2018-Apr-10 19:29N 25°47' W 080°11'0 0.0
2018-Apr-10 18:57N 25°47' W 080°11'0 0.0
2018-Apr-10 18:24N 25°47' W 080°11'0 0.0
2018-Apr-10 18:00N 25°47' W 080°11'0 1.0
2018-Apr-10 17:30N 25°46' W 080°11'1 2.9
2018-Apr-10 17:00N 25°46' W 080°09'1 1.4
2018-Apr-10 16:30N 25°46' W 080°10'0 0.8
2018-Apr-10 16:00N 25°46' W 080°10'0 0.0
2018-Apr-10 15:30N 25°46' W 080°10'0 0.0
2018-Apr-10 15:00N 25°46' W 080°10'0 0.0
2018-Apr-10 14:30N 25°46' W 080°10'0 0.0
2018-Apr-10 14:00N 25°46' W 080°10'0 0.0
2018-Apr-10 13:30N 25°46' W 080°10'0 0.0
2018-Apr-10 13:00N 25°46' W 080°10'0 0.0
2018-Apr-10 12:30N 25°46' W 080°10'0 0.0
2018-Apr-10 12:00N 25°46' W 080°10'1 1.1
2018-Apr-10 11:30N 25°46' W 080°09'1 1.3
2018-Apr-10 11:00N 25°46' W 080°10'0 0.0
2018-Apr-10 10:28N 25°46' W 080°10'0 0.0
2018-Apr-10 09:58N 25°46' W 080°10'0 0.0
2018-Apr-10 09:28N 25°46' W 080°10'0 0.0
2018-Apr-10 08:58N 25°46' W 080°10'0 0.0
2018-Apr-10 08:31N 25°46' W 080°10'0 0.0
2018-Apr-10 07:58N 25°46' W 080°10'0 0.0
2018-Apr-10 07:28N 25°46' W 080°10'0 0.0
2018-Apr-10 06:55N 25°46' W 080°10'0 0.0
2018-Apr-10 06:31N 25°46' W 080°10'0 0.0
2018-Apr-10 05:58N 25°46' W 080°10'0 0.0
2018-Apr-10 05:28N 25°46' W 080°10'0 0.0
2018-Apr-10 05:01N 25°46' W 080°10'  

Dump ship's entire track history